createdAt,value
2015-06-15T00:00:08.739Z,95169
2015-06-15T00:00:27.270Z,95157
2015-06-15T00:00:45.895Z,95163
2015-06-15T00:01:05.508Z,95171
2015-06-15T00:01:24.180Z,95168
2015-06-15T00:01:42.617Z,95166
2015-06-15T00:02:01.213Z,95171
2015-06-15T00:02:20.072Z,95169
2015-06-15T00:02:38.650Z,95165
2015-06-15T00:02:57.215Z,95165
2015-06-15T00:03:15.637Z,95171
2015-06-15T00:03:34.121Z,95163
2015-06-15T00:03:52.574Z,95160
2015-06-15T00:04:10.952Z,95166
2015-06-15T00:04:29.421Z,95171
2015-06-15T00:04:47.937Z,95163
2015-06-15T00:05:06.358Z,95165
2015-06-15T00:05:24.940Z,95173
2015-06-15T00:05:43.705Z,95170
2015-06-15T00:06:02.283Z,95173
2015-06-15T00:06:20.254Z,95175
2015-06-15T00:06:38.692Z,95164
2015-06-15T00:06:57.348Z,95170
2015-06-15T00:07:15.817Z,95158
2015-06-15T00:07:34.428Z,95164
2015-06-15T00:07:52.881Z,95166
2015-06-15T00:08:11.334Z,95172
2015-06-15T00:08:29.915Z,95166
2015-06-15T00:08:48.618Z,95160
2015-06-15T00:09:07.118Z,95168
2015-06-15T00:09:25.509Z,95163
2015-06-15T00:09:43.949Z,95163
2015-06-15T00:10:02.386Z,95162
2015-06-15T00:10:20.870Z,95162
2015-06-15T00:10:39.279Z,95168
2015-06-15T00:10:57.685Z,95174
2015-06-15T00:11:16.107Z,95157
2015-06-15T00:11:34.622Z,95157
2015-06-15T00:11:53.204Z,95176
2015-06-15T00:12:11.875Z,95165
2015-06-15T00:12:30.375Z,95168
2015-06-15T00:12:49.035Z,95154
2015-06-15T00:13:07.582Z,95163
2015-06-15T00:13:26.097Z,95168
2015-06-15T00:13:44.707Z,95159
2015-06-15T00:14:03.334Z,95167
2015-06-15T00:14:21.865Z,95169
2015-06-15T00:14:40.427Z,95169
2015-06-15T00:14:58.914Z,95166
2015-06-15T00:15:17.539Z,95161
2015-06-15T00:15:36.007Z,95156
2015-06-15T00:15:54.539Z,95162
2015-06-15T00:16:13.183Z,95167
2015-06-15T00:16:31.699Z,95164
2015-06-15T00:16:50.199Z,95164
2015-06-15T00:17:08.701Z,95159
2015-06-15T00:17:27.279Z,95155
2015-06-15T00:17:45.763Z,95167
2015-06-15T00:18:04.295Z,95166
2015-06-15T00:18:22.781Z,95166
2015-06-15T00:18:41.062Z,95160
2015-06-15T00:18:59.531Z,95163
2015-06-15T00:19:17.987Z,95163
2015-06-15T00:19:36.487Z,95162
2015-06-15T00:19:54.909Z,95165
2015-06-15T00:20:13.503Z,95157
2015-06-15T00:20:32.006Z,95163
2015-06-15T00:20:50.490Z,95160
2015-06-15T00:21:09.068Z,95156
2015-06-15T00:21:27.492Z,95162
2015-06-15T00:21:46.023Z,95159
2015-06-15T00:22:04.664Z,95160
2015-06-15T00:22:23.148Z,95157
2015-06-15T00:22:41.558Z,95163
2015-06-15T00:23:00.136Z,95160
2015-06-15T00:23:18.823Z,95152
2015-06-15T00:23:37.403Z,95155
2015-06-15T00:23:55.888Z,95158
2015-06-15T00:24:14.450Z,95169
2015-06-15T00:24:32.888Z,95157
2015-06-15T00:24:51.312Z,95160
2015-06-15T00:25:09.890Z,95158
2015-06-15T00:25:27.859Z,95156
2015-06-15T00:25:46.283Z,95163
2015-06-15T00:26:04.783Z,95157
2015-06-15T00:26:23.362Z,95157
2015-06-15T00:26:41.830Z,95168
2015-06-15T00:27:00.426Z,95160
2015-06-15T00:27:19.051Z,95159
2015-06-15T00:27:37.489Z,95159
2015-06-15T00:27:55.929Z,95168
2015-06-15T00:28:14.585Z,95159
2015-06-15T00:28:33.023Z,95169
2015-06-15T00:28:51.570Z,95158
2015-06-15T00:29:10.228Z,95167
2015-06-15T00:29:29.009Z,95165
2015-06-15T00:29:47.587Z,95154
2015-06-15T00:30:06.012Z,95164
2015-06-15T00:30:24.512Z,95159
2015-06-15T00:30:43.075Z,95161
2015-06-15T00:31:01.606Z,95162
2015-06-15T00:31:20.061Z,95161
2015-06-15T00:31:38.733Z,95165
2015-06-15T00:31:57.233Z,95156
2015-06-15T00:32:15.658Z,95162
2015-06-15T00:32:34.111Z,95157
2015-06-15T00:32:52.564Z,95148
2015-06-15T00:33:10.970Z,95162
2015-06-15T00:33:29.550Z,95171
2015-06-15T00:33:48.097Z,95160
2015-06-15T00:34:06.629Z,95160
2015-06-15T00:34:25.100Z,95157
2015-06-15T00:34:43.522Z,95159
2015-06-15T00:35:02.085Z,95161
2015-06-15T00:35:20.741Z,95155
2015-06-15T00:35:39.337Z,95167
2015-06-15T00:35:57.993Z,95158
2015-06-15T00:36:16.509Z,95158
2015-06-15T00:36:35.090Z,95161
2015-06-15T00:36:53.621Z,95155
2015-06-15T00:37:12.277Z,95152
2015-06-15T00:37:30.715Z,95163
2015-06-15T00:37:49.373Z,95157
2015-06-15T00:38:07.810Z,95169
2015-06-15T00:38:26.529Z,95150
2015-06-15T00:38:44.954Z,95158
2015-06-15T00:39:03.392Z,95158
2015-06-15T00:39:21.782Z,95158
2015-06-15T00:39:40.267Z,95167
2015-06-15T00:39:58.987Z,95162
2015-06-15T00:40:17.612Z,95167
2015-06-15T00:40:36.175Z,95167
2015-06-15T00:40:54.568Z,95172
2015-06-15T00:41:13.240Z,95169
2015-06-15T00:41:31.834Z,95163
2015-06-15T00:41:50.350Z,95169
2015-06-15T00:42:08.742Z,95160
2015-06-15T00:42:27.336Z,95171
2015-06-15T00:42:45.883Z,95166
2015-06-15T00:43:04.490Z,95163
2015-06-15T00:43:23.005Z,95157
2015-06-15T00:43:41.662Z,95166
2015-06-15T00:44:00.255Z,95164
2015-06-15T00:44:18.958Z,95169
2015-06-15T00:44:37.348Z,95160
2015-06-15T00:44:55.864Z,95166
2015-06-15T00:45:14.334Z,95165
2015-06-15T00:45:32.975Z,95174
2015-06-15T00:45:51.459Z,95162
2015-06-15T00:46:09.850Z,95168
2015-06-15T00:46:28.616Z,95169
2015-06-15T00:46:47.881Z,95175
2015-06-15T00:47:06.350Z,95166
2015-06-15T00:47:24.772Z,95169
2015-06-15T00:47:43.210Z,95169
2015-06-15T00:48:01.601Z,95166
2015-06-15T00:48:20.116Z,95169
2015-06-15T00:48:38.592Z,95166
2015-06-15T00:48:57.201Z,95175
2015-06-15T00:49:15.592Z,95166
2015-06-15T00:49:34.005Z,95171
2015-06-15T00:49:52.896Z,95163
2015-06-15T00:50:11.646Z,95160
2015-06-15T00:50:30.136Z,95158
2015-06-15T00:50:48.621Z,95163
2015-06-15T00:51:07.011Z,95161
2015-06-15T00:51:25.433Z,95153
2015-06-15T00:51:44.034Z,95169
2015-06-15T00:52:02.456Z,95173
2015-06-15T00:52:20.862Z,95169
2015-06-15T00:52:39.268Z,95169
2015-06-15T00:52:57.853Z,95164
2015-06-15T00:53:16.494Z,95161
2015-06-15T00:53:35.056Z,95161
2015-06-15T00:53:53.497Z,95157
2015-06-15T00:54:11.997Z,95163
2015-06-15T00:54:30.450Z,95161
2015-06-15T00:54:49.028Z,95164
2015-06-15T00:55:07.721Z,95167
2015-06-15T00:55:26.174Z,95162
2015-06-15T00:55:44.611Z,95170
2015-06-15T00:56:03.147Z,95167
2015-06-15T00:56:21.709Z,95172
2015-06-15T00:56:40.131Z,95158
2015-06-15T00:56:58.693Z,95166
2015-06-15T00:57:17.290Z,95163
2015-06-15T00:57:35.759Z,95172
2015-06-15T00:57:54.275Z,95161
2015-06-15T00:58:12.857Z,95158
2015-06-15T00:58:31.232Z,95158
2015-06-15T00:58:49.669Z,95171
2015-06-15T00:59:08.091Z,95166
2015-06-15T00:59:26.703Z,95161
2015-06-15T00:59:45.172Z,95160
2015-06-15T01:00:03.625Z,95169
2015-06-15T01:00:22.067Z,95166
2015-06-15T01:00:40.504Z,95167
2015-06-15T01:00:59.036Z,95175
2015-06-15T01:01:17.442Z,95169
2015-06-15T01:01:35.851Z,95162
2015-06-15T01:01:54.226Z,95159
2015-06-15T01:02:12.804Z,95162
2015-06-15T01:02:31.355Z,95165
2015-06-15T01:02:49.824Z,95170
2015-06-15T01:03:08.261Z,95161
2015-06-15T01:03:26.871Z,95173
2015-06-15T01:03:45.310Z,95164
2015-06-15T01:04:03.763Z,95161
2015-06-15T01:04:22.404Z,95167
2015-06-15T01:04:40.813Z,95169
2015-06-15T01:04:59.423Z,95169
2015-06-15T01:05:18.063Z,95169
2015-06-15T01:05:36.485Z,95161
2015-06-15T01:05:55.066Z,95166
2015-06-15T01:06:13.691Z,95161
2015-06-15T01:06:32.129Z,95163
2015-06-15T01:06:50.772Z,95160
2015-06-15T01:07:09.304Z,95167
2015-06-15T01:07:27.679Z,95163
2015-06-15T01:07:46.116Z,95163
2015-06-15T01:08:04.572Z,95157
2015-06-15T01:08:23.041Z,95168
2015-06-15T01:08:41.728Z,95171
2015-06-15T01:09:00.121Z,95162
2015-06-15T01:09:18.684Z,95157
2015-06-15T01:09:37.074Z,95157
2015-06-15T01:09:55.715Z,95157
2015-06-15T01:10:14.186Z,95164
2015-06-15T01:10:32.701Z,95164
2015-06-15T01:10:51.232Z,95158
2015-06-15T01:11:09.690Z,95158
2015-06-15T01:11:28.143Z,95155
2015-06-15T01:11:46.658Z,95161
2015-06-15T01:12:05.299Z,95164
2015-06-15T01:12:24.066Z,95163
2015-06-15T01:12:42.800Z,95158
2015-06-15T01:13:01.331Z,95161
2015-06-15T01:13:19.944Z,95158
2015-06-15T01:13:38.350Z,95164
2015-06-15T01:13:56.725Z,95164
2015-06-15T01:14:15.178Z,95164
2015-06-15T01:14:33.759Z,95162
2015-06-15T01:14:52.384Z,95170
2015-06-15T01:15:10.806Z,95169
2015-06-15T01:15:29.558Z,95170
2015-06-15T01:15:47.980Z,95164
2015-06-15T01:16:06.511Z,95167
2015-06-15T01:16:25.202Z,95165
2015-06-15T01:16:43.592Z,95165
2015-06-15T01:17:02.170Z,95164
2015-06-15T01:17:20.577Z,95161
2015-06-15T01:17:39.032Z,95172
2015-06-15T01:17:57.672Z,95167
2015-06-15T01:18:16.063Z,95158
2015-06-15T01:18:34.672Z,95167
2015-06-15T01:18:53.206Z,95167
2015-06-15T01:19:11.627Z,95158
2015-06-15T01:19:30.002Z,95161
2015-06-15T01:19:48.396Z,95167
2015-06-15T01:20:06.771Z,95161
2015-06-15T01:20:25.162Z,95167
2015-06-15T01:20:43.771Z,95164
2015-06-15T01:21:02.227Z,95170
2015-06-15T01:21:20.665Z,95167
2015-06-15T01:21:39.102Z,95167
2015-06-15T01:21:57.495Z,95167
2015-06-15T01:22:16.042Z,95167
2015-06-15T01:22:34.417Z,95170
2015-06-15T01:22:52.948Z,95159
2015-06-15T01:23:11.341Z,95170
2015-06-15T01:23:29.887Z,95170
2015-06-15T01:23:48.434Z,95173
2015-06-15T01:24:06.937Z,95168
2015-06-15T01:24:25.547Z,95165
2015-06-15T01:24:44.140Z,95168
2015-06-15T01:25:02.594Z,95170
2015-06-15T01:25:21.050Z,95161
2015-06-15T01:25:39.581Z,95172
2015-06-15T01:25:58.065Z,95172
2015-06-15T01:26:16.380Z,95164
2015-06-15T01:26:34.974Z,95178
2015-06-15T01:26:53.536Z,95170
2015-06-15T01:27:12.005Z,95175
2015-06-15T01:27:30.647Z,95169
2015-06-15T01:27:49.522Z,95175
2015-06-15T01:28:07.913Z,95167
2015-06-15T01:28:26.447Z,95178
2015-06-15T01:28:45.041Z,95164
2015-06-15T01:29:03.525Z,95168
2015-06-15T01:29:21.947Z,95171
2015-06-15T01:29:40.435Z,95173
2015-06-15T01:29:58.872Z,95172
2015-06-15T01:30:17.310Z,95164
2015-06-15T01:30:35.734Z,95175
2015-06-15T01:30:54.374Z,95169
2015-06-15T01:31:12.968Z,95177
2015-06-15T01:31:31.452Z,95169
2015-06-15T01:31:49.861Z,95171
2015-06-15T01:32:08.579Z,95171
2015-06-15T01:32:27.001Z,95172
2015-06-15T01:32:45.395Z,95172
2015-06-15T01:33:03.785Z,95169
2015-06-15T01:33:22.223Z,95172
2015-06-15T01:33:40.692Z,95172
2015-06-15T01:33:59.148Z,95167
2015-06-15T01:34:17.585Z,95166
2015-06-15T01:34:35.992Z,95169
2015-06-15T01:34:54.603Z,95166
2015-06-15T01:35:13.290Z,95166
2015-06-15T01:35:31.697Z,95177
2015-06-15T01:35:50.150Z,95166
2015-06-15T01:36:08.700Z,95172
2015-06-15T01:36:27.090Z,95170
2015-06-15T01:36:45.497Z,95171
2015-06-15T01:37:04.030Z,95167
2015-06-15T01:37:22.420Z,95169
2015-06-15T01:37:41.092Z,95155
2015-06-15T01:37:59.577Z,95165
2015-06-15T01:38:17.516Z,95176
2015-06-15T01:38:35.969Z,95167
2015-06-15T01:38:54.407Z,95175
2015-06-15T01:39:12.956Z,95172
2015-06-15T01:39:31.393Z,95163
2015-06-15T01:39:49.846Z,95169
2015-06-15T01:40:08.299Z,95166
2015-06-15T01:40:26.788Z,95158
2015-06-15T01:40:45.272Z,95166
2015-06-15T01:41:03.725Z,95161
2015-06-15T01:41:22.227Z,95166
2015-06-15T01:41:40.774Z,95167
2015-06-15T01:41:59.384Z,95169
2015-06-15T01:42:17.977Z,95166
2015-06-15T01:42:36.432Z,95169
2015-06-15T01:42:54.932Z,95158
2015-06-15T01:43:13.526Z,95164
2015-06-15T01:43:32.122Z,95169
2015-06-15T01:43:50.575Z,95161
2015-06-15T01:44:09.200Z,95165
2015-06-15T01:44:27.700Z,95159
2015-06-15T01:44:46.157Z,95165
2015-06-15T01:45:04.782Z,95162
2015-06-15T01:45:23.188Z,95160
2015-06-15T01:45:41.783Z,95171
2015-06-15T01:46:00.564Z,95160
2015-06-15T01:46:19.096Z,95165
2015-06-15T01:46:37.552Z,95169
2015-06-15T01:46:56.067Z,95157
2015-06-15T01:47:14.505Z,95168
2015-06-15T01:47:33.021Z,95166
2015-06-15T01:47:51.491Z,95160
2015-06-15T01:48:09.882Z,95160
2015-06-15T01:48:28.288Z,95162
2015-06-15T01:48:46.788Z,95161
2015-06-15T01:49:05.245Z,95167
2015-06-15T01:49:23.636Z,95164
2015-06-15T01:49:42.089Z,95167
2015-06-15T01:50:00.559Z,95167
2015-06-15T01:50:18.981Z,95167
2015-06-15T01:50:37.668Z,95164
2015-06-15T01:50:56.153Z,95161
2015-06-15T01:51:14.921Z,95161
2015-06-15T01:51:33.531Z,95157
2015-06-15T01:51:52.140Z,95163
2015-06-15T01:52:10.690Z,95151
2015-06-15T01:52:29.096Z,95167
2015-06-15T01:52:47.705Z,95175
2015-06-15T01:53:06.096Z,95164
2015-06-15T01:53:24.520Z,95158
2015-06-15T01:53:42.973Z,95150
2015-06-15T01:54:01.364Z,95158
2015-06-15T01:54:19.976Z,95152
2015-06-15T01:54:38.367Z,95155
2015-06-15T01:54:56.882Z,95158
2015-06-15T01:55:15.445Z,95149
2015-06-15T01:55:34.009Z,95153
2015-06-15T01:55:52.400Z,95159
2015-06-15T01:56:11.072Z,95151
2015-06-15T01:56:29.528Z,95149
2015-06-15T01:56:47.965Z,95163
2015-06-15T01:57:06.419Z,95143
2015-06-15T01:57:24.809Z,95151
2015-06-15T01:57:43.233Z,95148
2015-06-15T01:58:01.764Z,95151
2015-06-15T01:58:20.311Z,95160
2015-06-15T01:58:38.720Z,95160
2015-06-15T01:58:57.174Z,95146
2015-06-15T01:59:15.564Z,95153
2015-06-15T01:59:34.158Z,95148
2015-06-15T01:59:52.754Z,95146
2015-06-15T02:00:11.254Z,95154
2015-06-15T02:00:29.676Z,95154
2015-06-15T02:00:48.272Z,95154
2015-06-15T02:01:06.882Z,95160
2015-06-15T02:01:25.491Z,95143
2015-06-15T02:01:43.899Z,95143
2015-06-15T02:02:02.493Z,95155
2015-06-15T02:02:20.977Z,95155
2015-06-15T02:02:39.524Z,95155
2015-06-15T02:02:58.043Z,95161
2015-06-15T02:03:16.480Z,95158
2015-06-15T02:03:34.887Z,95150
2015-06-15T02:03:53.293Z,95158
2015-06-15T02:04:11.842Z,95158
2015-06-15T02:04:30.498Z,95152
2015-06-15T02:04:49.170Z,95153
2015-06-15T02:05:07.734Z,95158
2015-06-15T02:05:26.313Z,95152
2015-06-15T02:05:44.969Z,95158
2015-06-15T02:06:03.375Z,95149
2015-06-15T02:06:21.831Z,95155
2015-06-15T02:06:40.456Z,95149
2015-06-15T02:06:59.222Z,95152
2015-06-15T02:07:17.772Z,95161
2015-06-15T02:07:36.381Z,95149
2015-06-15T02:07:55.069Z,95149
2015-06-15T02:08:13.805Z,95146
2015-06-15T02:08:32.446Z,95154
2015-06-15T02:08:51.071Z,95162
2015-06-15T02:09:09.461Z,95151
2015-06-15T02:09:28.089Z,95154
2015-06-15T02:09:46.495Z,95159
2015-06-15T02:10:05.152Z,95148
2015-06-15T02:10:23.683Z,95162
2015-06-15T02:10:42.326Z,95162
2015-06-15T02:11:00.716Z,95154
2015-06-15T02:11:19.201Z,95154
2015-06-15T02:11:37.609Z,95148
2015-06-15T02:11:56.015Z,95151
2015-06-15T02:12:14.484Z,95154
2015-06-15T02:12:32.906Z,95158
2015-06-15T02:12:51.471Z,95146
2015-06-15T02:13:10.127Z,95151
2015-06-15T02:13:27.940Z,95151
2015-06-15T02:13:46.334Z,95156
2015-06-15T02:14:08.396Z,95160
2015-06-15T02:14:27.224Z,95154
2015-06-15T02:14:45.586Z,95154
2015-06-15T02:15:04.054Z,95151
2015-06-15T02:15:22.836Z,95150
2015-06-15T02:15:41.351Z,95146
2015-06-15T02:16:00.134Z,95150
2015-06-15T02:16:18.541Z,95157
2015-06-15T02:16:36.322Z,95148
2015-06-15T02:16:54.653Z,95149
2015-06-15T02:17:13.012Z,95149
2015-06-15T02:17:31.325Z,95163
2015-06-15T02:17:49.637Z,95148
2015-06-15T02:18:08.155Z,95152
2015-06-15T02:18:26.530Z,95150
2015-06-15T02:18:44.921Z,95145
2015-06-15T02:19:03.377Z,95153
2015-06-15T02:19:21.486Z,95149
2015-06-15T02:19:39.924Z,95153
2015-06-15T02:19:58.346Z,95152
2015-06-15T02:20:16.816Z,95153
2015-06-15T02:20:35.332Z,95137
2015-06-15T02:20:53.129Z,95150
2015-06-15T02:21:11.460Z,95154
2015-06-15T02:21:29.835Z,95150
2015-06-15T02:21:48.351Z,95153
2015-06-15T02:22:06.726Z,95152
2015-06-15T02:22:25.259Z,95151
2015-06-15T02:22:43.603Z,95158
2015-06-15T02:23:01.915Z,95154
2015-06-15T02:23:20.464Z,95150
2015-06-15T02:23:38.886Z,95151
2015-06-15T02:23:56.808Z,95153
2015-06-15T02:24:15.308Z,95145
2015-06-15T02:24:33.670Z,95153
2015-06-15T02:24:51.967Z,95157
2015-06-15T02:25:10.295Z,95154
2015-06-15T02:25:28.782Z,95153
2015-06-15T02:25:47.329Z,95147
2015-06-15T02:26:05.798Z,95156
2015-06-15T02:26:24.111Z,95147
2015-06-15T02:26:42.534Z,95153
2015-06-15T02:27:01.191Z,95147
2015-06-15T02:27:19.706Z,95160
2015-06-15T02:27:38.052Z,95152
2015-06-15T02:27:56.443Z,95156
2015-06-15T02:28:14.818Z,95153
2015-06-15T02:28:33.208Z,95151
2015-06-15T02:28:51.524Z,95158
2015-06-15T02:29:09.961Z,95150
2015-06-15T02:29:28.368Z,95152
2015-06-15T02:29:46.713Z,95160
2015-06-15T02:30:05.166Z,95160
2015-06-15T02:30:23.557Z,95154
2015-06-15T02:30:41.948Z,95157
2015-06-15T02:31:00.340Z,95156
2015-06-15T02:31:18.668Z,95156
2015-06-15T02:31:37.106Z,95164
2015-06-15T02:31:55.593Z,95160
2015-06-15T02:32:13.890Z,95156
2015-06-15T02:32:32.359Z,95161
2015-06-15T02:32:50.890Z,95157
2015-06-15T02:33:09.768Z,95151
2015-06-15T02:33:28.143Z,95157
2015-06-15T02:33:46.737Z,95161
2015-06-15T02:34:05.083Z,95156
2015-06-15T02:34:23.380Z,95159
2015-06-15T02:34:41.255Z,95159
2015-06-15T02:34:59.567Z,95156
2015-06-15T02:35:18.008Z,95175
2015-06-15T02:35:36.304Z,95160
2015-06-15T02:35:54.679Z,95165
2015-06-15T02:36:13.181Z,95157
2015-06-15T02:36:31.478Z,95160
2015-06-15T02:36:49.838Z,95165
2015-06-15T02:37:08.322Z,95165
2015-06-15T02:37:26.700Z,95163
2015-06-15T02:37:44.997Z,95160
2015-06-15T02:38:03.403Z,95159
2015-06-15T02:38:21.733Z,95170
2015-06-15T02:38:40.108Z,95166
2015-06-15T02:38:58.546Z,95168
2015-06-15T02:39:16.952Z,95164
2015-06-15T02:39:35.330Z,95167
2015-06-15T02:39:53.674Z,95167
2015-06-15T02:40:11.861Z,95171
2015-06-15T02:40:29.676Z,95167
2015-06-15T02:40:48.051Z,95161
2015-06-15T02:41:06.691Z,95160
2015-06-15T02:41:25.113Z,95164
2015-06-15T02:41:43.490Z,95163
2015-06-15T02:42:02.053Z,95168
2015-06-15T02:42:20.365Z,95165
2015-06-15T02:42:38.681Z,95165
2015-06-15T02:42:57.056Z,95172
2015-06-15T02:43:15.415Z,95166
2015-06-15T02:43:33.821Z,95170
2015-06-15T02:43:52.121Z,95179
2015-06-15T02:44:09.918Z,95172
2015-06-15T02:44:28.246Z,95166
2015-06-15T02:44:46.701Z,95161
2015-06-15T02:45:05.108Z,95166
2015-06-15T02:45:23.561Z,95167
2015-06-15T02:45:41.967Z,95168
2015-06-15T02:46:00.361Z,95166
2015-06-15T02:46:18.814Z,95171
2015-06-15T02:46:37.158Z,95171
2015-06-15T02:46:55.488Z,95177
2015-06-15T02:47:13.863Z,95185
2015-06-15T02:47:31.816Z,95171
2015-06-15T02:47:50.269Z,95170
2015-06-15T02:48:08.568Z,95172
2015-06-15T02:48:26.865Z,95177
2015-06-15T02:48:44.740Z,95174
2015-06-15T02:49:03.149Z,95185
2015-06-15T02:49:21.508Z,95183
2015-06-15T02:49:40.071Z,95173
2015-06-15T02:49:58.368Z,95175
2015-06-15T02:50:16.792Z,95178
2015-06-15T02:50:35.213Z,95186
2015-06-15T02:50:53.729Z,95174
2015-06-15T02:51:12.045Z,95180
2015-06-15T02:51:30.576Z,95177
2015-06-15T02:51:48.873Z,95181
2015-06-15T02:52:07.498Z,95181
2015-06-15T02:52:25.828Z,95179
2015-06-15T02:52:44.109Z,95181
2015-06-15T02:53:02.672Z,95186
2015-06-15T02:53:20.970Z,95171
2015-06-15T02:53:39.611Z,95188
2015-06-15T02:53:57.970Z,95171
2015-06-15T02:54:16.549Z,95171
2015-06-15T02:54:34.989Z,95180
2015-06-15T02:54:53.364Z,95175
2015-06-15T02:55:12.020Z,95185
2015-06-15T02:55:30.461Z,95176
2015-06-15T02:55:48.898Z,95182
2015-06-15T02:56:07.305Z,95185
2015-06-15T02:56:25.711Z,95184
2015-06-15T02:56:44.166Z,95176
2015-06-15T02:57:02.744Z,95178
2015-06-15T02:57:21.103Z,95187
2015-06-15T02:57:39.403Z,95178
2015-06-15T02:57:57.966Z,95184
2015-06-15T02:58:16.435Z,95188
2015-06-15T02:58:34.778Z,95182
2015-06-15T02:58:53.405Z,95187
2015-06-15T02:59:12.015Z,95189
2015-06-15T02:59:30.624Z,95184
2015-06-15T02:59:48.970Z,95183
2015-06-15T03:00:07.454Z,95189
2015-06-15T03:00:25.954Z,95186
2015-06-15T03:01:07.896Z,95183
2015-06-15T03:01:26.380Z,95184
2015-06-15T03:01:44.849Z,95191
2015-06-15T03:02:03.146Z,95185
2015-06-15T03:02:21.570Z,95196
2015-06-15T03:02:39.929Z,95187
2015-06-15T03:02:58.445Z,95192
2015-06-15T03:03:16.776Z,95178
2015-06-15T03:03:35.088Z,95183
2015-06-15T03:03:53.448Z,95194
2015-06-15T03:04:11.916Z,95185
2015-06-15T03:04:30.230Z,95188
2015-06-15T03:04:48.839Z,95187
2015-06-15T03:05:07.324Z,95195
2015-06-15T03:05:25.749Z,95189
2015-06-15T03:05:44.078Z,95180
2015-06-15T03:06:02.406Z,95195
2015-06-15T03:06:20.718Z,95189
2015-06-15T03:06:39.142Z,95189
2015-06-15T03:06:57.501Z,95186
2015-06-15T03:07:15.845Z,95180
2015-06-15T03:07:34.191Z,95196
2015-06-15T03:07:52.582Z,95190
2015-06-15T03:08:11.082Z,95186
2015-06-15T03:08:29.457Z,95185
2015-06-15T03:08:47.819Z,95191
2015-06-15T03:09:06.147Z,95189
2015-06-15T03:09:24.756Z,95188
2015-06-15T03:09:43.055Z,95194
2015-06-15T03:10:01.352Z,95188
2015-06-15T03:10:19.774Z,95203
2015-06-15T03:10:38.118Z,95189
2015-06-15T03:10:56.479Z,95197
2015-06-15T03:11:14.964Z,95197
2015-06-15T03:11:33.526Z,95204
2015-06-15T03:11:51.952Z,95191
2015-06-15T03:12:10.436Z,95193
2015-06-15T03:12:28.874Z,95203
2015-06-15T03:12:47.374Z,95187
2015-06-15T03:13:05.906Z,95193
2015-06-15T03:13:24.281Z,95194
2015-06-15T03:13:42.578Z,95191
2015-06-15T03:14:00.894Z,95204
2015-06-15T03:14:19.223Z,95190
2015-06-15T03:14:37.738Z,95190
2015-06-15T03:14:56.129Z,95183
2015-06-15T03:15:14.428Z,95192
2015-06-15T03:15:32.881Z,95189
2015-06-15T03:15:51.303Z,95197
2015-06-15T03:16:09.398Z,95201
2015-06-15T03:16:27.586Z,95195
2015-06-15T03:16:45.945Z,95191
2015-06-15T03:17:04.617Z,95190
2015-06-15T03:17:23.026Z,95195
2015-06-15T03:17:41.386Z,95189
2015-06-15T03:17:59.948Z,95191
2015-06-15T03:18:18.420Z,95192
2015-06-15T03:18:36.779Z,95195
2015-06-15T03:18:55.186Z,95187
2015-06-15T03:19:13.045Z,95185
2015-06-15T03:19:31.468Z,95194
2015-06-15T03:19:49.765Z,95190
2015-06-15T03:20:08.171Z,95185
2015-06-15T03:20:26.487Z,95191
2015-06-15T03:20:44.783Z,95191
2015-06-15T03:21:03.283Z,95194
2015-06-15T03:21:21.908Z,95184
2015-06-15T03:21:40.192Z,95187
2015-06-15T03:21:58.535Z,95186
2015-06-15T03:22:16.848Z,95190
2015-06-15T03:22:35.132Z,95189
2015-06-15T03:22:53.507Z,95192
2015-06-15T03:23:11.992Z,95195
2015-06-15T03:23:30.523Z,95191
2015-06-15T03:23:49.009Z,95187
2015-06-15T03:24:07.431Z,95186
2015-06-15T03:24:25.181Z,95202
2015-06-15T03:24:43.528Z,95187
2015-06-15T03:25:01.825Z,95189
2015-06-15T03:25:20.168Z,95203
2015-06-15T03:25:38.512Z,95201
2015-06-15T03:25:56.812Z,95180
2015-06-15T03:26:15.187Z,95192
2015-06-15T03:26:33.546Z,95186
2015-06-15T03:26:51.970Z,95193
2015-06-15T03:27:10.345Z,95187
2015-06-15T03:27:28.642Z,95194
2015-06-15T03:27:47.111Z,95187
2015-06-15T03:28:04.941Z,95184
2015-06-15T03:28:23.238Z,95190
2015-06-15T03:28:41.566Z,95184
2015-06-15T03:28:59.960Z,95192
2015-06-15T03:29:18.257Z,95191
2015-06-15T03:29:36.678Z,95197
2015-06-15T03:29:54.507Z,95193
2015-06-15T03:30:12.884Z,95190
2015-06-15T03:30:31.243Z,95180
2015-06-15T03:30:49.540Z,95184
2015-06-15T03:31:07.995Z,95186
2015-06-15T03:31:26.386Z,95191
2015-06-15T03:31:44.870Z,95197
2015-06-15T03:32:03.182Z,95197
2015-06-15T03:32:21.654Z,95191
2015-06-15T03:32:39.982Z,95191
2015-06-15T03:32:58.482Z,95201
2015-06-15T03:33:17.204Z,95193
2015-06-15T03:33:35.735Z,95197
2015-06-15T03:33:54.282Z,95191
2015-06-15T03:34:12.626Z,95193
2015-06-15T03:34:31.081Z,95186
2015-06-15T03:34:49.503Z,95189
2015-06-15T03:35:08.003Z,95191
2015-06-15T03:35:26.411Z,95191
2015-06-15T03:35:44.724Z,95194
2015-06-15T03:36:03.052Z,95191
2015-06-15T03:36:21.583Z,95193
2015-06-15T03:36:39.867Z,95182
2015-06-15T03:36:58.164Z,95190
2015-06-15T03:37:16.633Z,95203
2015-06-15T03:37:34.948Z,95187
2015-06-15T03:37:53.308Z,95184
2015-06-15T03:38:11.667Z,95194
2015-06-15T03:38:30.152Z,95186
2015-06-15T03:38:48.607Z,95201
2015-06-15T03:39:06.982Z,95187
2015-06-15T03:39:25.294Z,95184
2015-06-15T03:39:43.577Z,95192
2015-06-15T03:40:02.031Z,95192
2015-06-15T03:40:20.577Z,95190
2015-06-15T03:40:39.046Z,95187
2015-06-15T03:40:57.330Z,95184
2015-06-15T03:41:15.830Z,95196
2015-06-15T03:41:34.330Z,95191
2015-06-15T03:41:52.630Z,95186
2015-06-15T03:42:11.083Z,95191
2015-06-15T03:42:29.615Z,95195
2015-06-15T03:42:48.052Z,95187
2015-06-15T03:43:05.867Z,95192
2015-06-15T03:43:24.367Z,95192
2015-06-15T03:43:42.867Z,95205
2015-06-15T03:44:01.447Z,95194
2015-06-15T03:44:19.791Z,95198
2015-06-15T03:44:38.087Z,95187
2015-06-15T03:44:56.369Z,95190
2015-06-15T03:45:14.934Z,95194
2015-06-15T03:45:33.262Z,95185
2015-06-15T03:45:53.387Z,95206
2015-06-15T03:46:11.702Z,95204
2015-06-15T03:46:29.686Z,95193
2015-06-15T03:46:47.967Z,95190
2015-06-15T03:47:06.327Z,95198
2015-06-15T03:47:24.860Z,95187
2015-06-15T03:47:42.719Z,95196
2015-06-15T03:48:01.001Z,95196
2015-06-15T03:48:18.848Z,95198
2015-06-15T03:48:37.145Z,95204
2015-06-15T03:48:55.427Z,95194
2015-06-15T03:49:13.958Z,95194
2015-06-15T03:49:32.241Z,95197
2015-06-15T03:49:50.538Z,95196
2015-06-15T03:50:08.819Z,95193
2015-06-15T03:50:27.213Z,95193
2015-06-15T03:50:45.619Z,95204
2015-06-15T03:51:03.900Z,95196
2015-06-15T03:51:22.385Z,95195
2015-06-15T03:51:40.871Z,95195
2015-06-15T03:51:59.230Z,95206
2015-06-15T03:52:17.652Z,95197
2015-06-15T03:52:35.982Z,95206
2015-06-15T03:52:54.639Z,95193
2015-06-15T03:53:13.092Z,95204
2015-06-15T03:53:31.373Z,95206
2015-06-15T03:53:49.734Z,95204
2015-06-15T03:54:08.109Z,95196
2015-06-15T03:54:26.438Z,95201
2015-06-15T03:54:44.847Z,95201
2015-06-15T03:55:03.284Z,95193
2015-06-15T03:55:21.644Z,95189
2015-06-15T03:55:39.956Z,95202
2015-06-15T03:55:58.381Z,95201
2015-06-15T03:56:16.756Z,95205
2015-06-15T03:56:35.240Z,95205
2015-06-15T03:56:53.805Z,95191
2015-06-15T03:57:12.133Z,95194
2015-06-15T03:57:30.617Z,95197
2015-06-15T03:57:48.930Z,95215
2015-06-15T03:58:07.480Z,95193